Time;durP1;ratioP1;P1;durP2;ratioP2;P2;SDS_P1;SDS_P2;PMS_P1;PMS_P2;Temp;Humidity;BMP_temperature;BMP_pressure;BME280_temperature;BME280_humidity;BME280_pressure;Samples;Min_cycle;Max_cycle;Signal;HPM_P1;HPM_P2
2021/03/03 00:00:45;;;;;;;29.53;18.03;;;;;;;;;;5030137;28;20193;-69
2021/03/03 00:03:10;;;;;;;34.37;18.07;;;;;;;;;;5022155;28;20874;-68
2021/03/03 00:05:36;;;;;;;30.87;17.13;;;;;;;;;;5029990;28;21319;-68
2021/03/03 00:08:01;;;;;;;32.20;17.43;;;;;;;;;;5024715;28;20194;-68
2021/03/03 00:10:27;;;;;;;32.33;17.87;;;;;;;;;;5032297;28;20580;-68
2021/03/03 00:12:52;;;;;;;30.47;17.57;;;;;;;;;;5022272;28;20209;-68
2021/03/03 00:15:17;;;;;;;35.00;19.33;;;;;;;;;;5030731;28;20218;-68
2021/03/03 00:17:43;;;;;;;34.57;19.57;;;;;;;;;;5022182;28;20205;-69
2021/03/03 00:20:09;;;;;;;40.07;21.87;;;;;;;;;;5033685;28;20637;-67
2021/03/03 00:22:34;;;;;;;36.57;20.07;;;;;;;;;;5024641;28;20189;-70
2021/03/03 00:25:00;;;;;;;35.17;20.60;;;;;;;;;;5033033;28;20181;-69
2021/03/03 00:27:25;;;;;;;34.00;19.43;;;;;;;;;;5033614;28;20676;-68
2021/03/03 00:29:51;;;;;;;34.23;18.50;;;;;;;;;;5023394;28;20766;-68
2021/03/03 00:32:16;;;;;;;32.67;18.70;;;;;;;;;;5029508;28;20209;-71
2021/03/03 00:34:41;;;;;;;36.73;20.30;;;;;;;;;;5023795;28;20189;-68
2021/03/03 00:37:07;;;;;;;36.63;17.97;;;;;;;;;;5029392;28;20361;-70
2021/03/03 00:39:32;;;;;;;35.80;19.13;;;;;;;;;;5023221;28;20640;-68
2021/03/03 00:41:58;;;;;;;30.57;18.33;;;;;;;;;;5031695;28;20224;-68
2021/03/03 00:44:23;;;;;;;36.20;20.10;;;;;;;;;;5021712;28;20243;-68
2021/03/03 00:46:49;;;;;;;32.37;18.90;;;;;;;;;;5029944;28;20213;-67
2021/03/03 00:49:14;;;;;;;33.37;18.43;;;;;;;;;;5022287;28;20283;-68
2021/03/03 00:51:40;;;;;;;35.33;18.80;;;;;;;;;;5031352;28;20186;-68
2021/03/03 00:54:05;;;;;;;33.43;19.20;;;;;;;;;;5032598;28;20232;-68
2021/03/03 00:56:31;;;;;;;33.73;19.00;;;;;;;;;;5022042;28;20210;-68
2021/03/03 00:58:56;;;;;;;36.53;20.80;;;;;;;;;;5034309;28;20562;-68
2021/03/03 01:01:21;;;;;;;38.73;20.60;;;;;;;;;;5020512;28;20193;-68
2021/03/03 01:03:47;;;;;;;36.40;19.93;;;;;;;;;;5031808;28;20210;-69
2021/03/03 01:06:14;;;;;;;40.67;21.20;;;;;;;;;;5021931;28;20588;-68
2021/03/03 01:08:39;;;;;;;41.03;21.07;;;;;;;;;;5032786;28;20185;-68
2021/03/03 01:11:04;;;;;;;38.53;21.53;;;;;;;;;;5024670;28;20239;-69
2021/03/03 01:13:30;;;;;;;40.27;20.83;;;;;;;;;;5032093;28;20210;-69
2021/03/03 01:15:55;;;;;;;34.70;19.67;;;;;;;;;;5023150;28;20688;-69
2021/03/03 01:18:20;;;;;;;35.80;21.00;;;;;;;;;;5029821;28;20694;-69
2021/03/03 01:20:46;;;;;;;38.50;21.63;;;;;;;;;;5023502;28;20962;-69
2021/03/03 01:23:11;;;;;;;37.07;20.33;;;;;;;;;;5030714;28;20228;-69
2021/03/03 01:25:36;;;;;;;45.40;22.83;;;;;;;;;;5031033;28;20692;-68
2021/03/03 01:28:02;;;;;;;35.00;19.43;;;;;;;;;;5022226;28;20193;-69
2021/03/03 01:30:27;;;;;;;36.43;20.27;;;;;;;;;;5030551;28;20645;-69
2021/03/03 01:32:53;;;;;;;35.97;21.23;;;;;;;;;;5023314;28;20196;-68
2021/03/03 01:35:18;;;;;;;37.17;19.97;;;;;;;;;;5031964;28;20186;-69
2021/03/03 01:37:43;;;;;;;38.10;21.13;;;;;;;;;;5021427;28;20225;-69
2021/03/03 01:40:10;;;;;;;35.00;19.30;;;;;;;;;;5030433;28;20194;-69
2021/03/03 01:42:35;;;;;;;39.83;21.50;;;;;;;;;;5022385;28;20220;-69
2021/03/03 01:45:01;;;;;;;36.33;20.53;;;;;;;;;;5029367;28;20186;-69
2021/03/03 01:47:26;;;;;;;37.27;21.03;;;;;;;;;;5020676;28;20218;-69
2021/03/03 01:49:52;;;;;;;34.93;19.53;;;;;;;;;;5031397;28;20194;-69
2021/03/03 01:52:18;;;;;;;35.37;19.10;;;;;;;;;;5020813;28;20182;-69
2021/03/03 01:54:44;;;;;;;38.90;21.10;;;;;;;;;;5034923;28;20468;-69
2021/03/03 01:57:11;;;;;;;38.67;21.17;;;;;;;;;;5030239;28;20259;-69
2021/03/03 01:59:36;;;;;;;33.73;19.70;;;;;;;;;;5028123;28;20201;-69
2021/03/03 02:02:03;;;;;;;35.43;19.97;;;;;;;;;;5047102;28;20185;-69
2021/03/03 02:04:28;;;;;;;37.70;20.13;;;;;;;;;;5025562;28;20220;-69
2021/03/03 02:07:16;;;;;;;34.47;19.60;;;;;;;;;;5034891;28;20542;-69
2021/03/03 02:10:07;;;;;;;35.80;19.33;;;;;;;;;;5027764;28;20197;-69
2021/03/03 02:12:43;;;;;;;37.60;21.07;;;;;;;;;;5032214;28;20207;-69
2021/03/03 02:15:10;;;;;;;37.87;19.63;;;;;;;;;;5031042;28;20694;-69
2021/03/03 02:17:39;;;;;;;36.77;20.00;;;;;;;;;;5030409;28;20202;-69
2021/03/03 02:20:09;;;;;;;37.43;20.97;;;;;;;;;;5025735;28;20190;-69
2021/03/03 02:22:49;;;;;;;40.87;21.43;;;;;;;;;;5033151;28;20192;-69
2021/03/03 02:25:22;;;;;;;41.17;20.57;;;;;;;;;;5025383;28;20197;-69
2021/03/03 02:27:48;;;;;;;40.33;20.80;;;;;;;;;;5033243;28;20189;-69
2021/03/03 02:30:14;;;;;;;37.50;20.80;;;;;;;;;;5025412;28;20181;-69
2021/03/03 02:32:40;;;;;;;42.80;21.63;;;;;;;;;;5032242;28;20201;-69
2021/03/03 02:35:08;;;;;;;37.83;21.93;;;;;;;;;;5026247;28;20705;-69
2021/03/03 02:37:34;;;;;;;38.77;20.67;;;;;;;;;;5033056;28;20242;-69
2021/03/03 02:40:02;;;;;;;42.07;20.73;;;;;;;;;;5024411;28;20236;-69
2021/03/03 02:42:27;;;;;;;38.93;21.23;;;;;;;;;;5031835;28;20229;-69
2021/03/03 02:44:53;;;;;;;41.13;21.83;;;;;;;;;;5032461;28;20193;-69
2021/03/03 02:47:19;;;;;;;44.07;22.07;;;;;;;;;;5027813;28;20190;-69
2021/03/03 02:49:44;;;;;;;38.83;21.77;;;;;;;;;;5032913;28;20676;-69
2021/03/03 02:52:10;;;;;;;45.43;22.80;;;;;;;;;;5025666;28;20185;-69
2021/03/03 02:54:35;;;;;;;43.17;22.77;;;;;;;;;;5034807;28;20189;-69
2021/03/03 02:57:01;;;;;;;44.17;22.40;;;;;;;;;;5024868;28;20680;-69
2021/03/03 02:59:33;;;;;;;40.67;23.07;;;;;;;;;;5035097;28;20191;-69
2021/03/03 03:01:59;;;;;;;40.20;21.33;;;;;;;;;;5027058;28;20553;-69
2021/03/03 03:04:29;;;;;;;41.40;21.57;;;;;;;;;;5032996;28;20223;-69
2021/03/03 03:06:57;;;;;;;37.90;19.93;;;;;;;;;;5026733;28;20544;-69
2021/03/03 03:09:24;;;;;;;33.17;19.20;;;;;;;;;;5032843;28;20806;-69
2021/03/03 03:11:51;;;;;;;36.53;21.00;;;;;;;;;;5026927;28;20652;-69
2021/03/03 03:14:24;;;;;;;35.87;19.17;;;;;;;;;;5033830;28;20257;-68
2021/03/03 03:16:52;;;;;;;42.67;21.43;;;;;;;;;;5023254;28;20243;-69
2021/03/03 03:19:22;;;;;;;34.27;19.17;;;;;;;;;;5034421;28;20196;-68
2021/03/03 03:21:49;;;;;;;36.27;18.83;;;;;;;;;;5031272;28;20236;-69
2021/03/03 03:24:18;;;;;;;40.93;20.53;;;;;;;;;;5025362;28;20530;-69
2021/03/03 03:26:44;;;;;;;38.23;19.90;;;;;;;;;;5032393;28;20193;-68
2021/03/03 03:29:10;;;;;;;45.60;21.47;;;;;;;;;;5025903;28;20190;-68
2021/03/03 03:31:38;;;;;;;36.30;20.23;;;;;;;;;;5032942;28;20182;-68
2021/03/03 03:34:05;;;;;;;39.27;20.97;;;;;;;;;;5027108;28;20194;-68
2021/03/03 03:36:31;;;;;;;39.77;20.57;;;;;;;;;;5033266;28;20204;-69
2021/03/03 03:38:57;;;;;;;35.30;19.27;;;;;;;;;;5027966;28;20268;-68
2021/03/03 03:41:24;;;;;;;35.63;19.30;;;;;;;;;;5033690;28;20657;-68
2021/03/03 03:43:52;;;;;;;41.00;21.33;;;;;;;;;;5025730;28;20199;-69
2021/03/03 03:46:17;;;;;;;41.77;20.70;;;;;;;;;;5030083;28;20189;-69
2021/03/03 03:48:43;;;;;;;37.07;20.40;;;;;;;;;;5021533;28;20857;-69
2021/03/03 03:51:08;;;;;;;41.60;20.77;;;;;;;;;;5031956;28;20181;-69
2021/03/03 03:53:34;;;;;;;38.87;20.77;;;;;;;;;;5031325;28;20243;-69
2021/03/03 03:56:00;;;;;;;37.10;20.17;;;;;;;;;;5024979;28;20216;-69
2021/03/03 03:58:26;;;;;;;47.70;22.63;;;;;;;;;;5035075;28;20189;-69
2021/03/03 04:00:52;;;;;;;36.73;21.07;;;;;;;;;;5023328;28;20193;-69
2021/03/03 04:03:17;;;;;;;40.47;20.60;;;;;;;;;;5032550;28;20193;-69
2021/03/03 04:05:42;;;;;;;38.07;19.40;;;;;;;;;;5026726;28;20206;-69
2021/03/03 04:08:08;;;;;;;36.30;19.43;;;;;;;;;;5032061;28;20224;-69
2021/03/03 04:10:33;;;;;;;39.77;20.57;;;;;;;;;;5025783;28;20225;-69
2021/03/03 04:12:59;;;;;;;38.47;19.93;;;;;;;;;;5030615;28;20213;-69
2021/03/03 04:15:25;;;;;;;38.00;19.30;;;;;;;;;;5036543;28;20229;-69
2021/03/03 04:17:51;;;;;;;35.57;18.73;;;;;;;;;;5031640;28;20218;-69
2021/03/03 04:20:19;;;;;;;35.93;20.07;;;;;;;;;;5023388;28;20227;-68
2021/03/03 04:22:44;;;;;;;37.50;19.00;;;;;;;;;;5028903;28;20193;-69
2021/03/03 04:25:12;;;;;;;36.20;18.80;;;;;;;;;;5031615;28;20257;-69
2021/03/03 04:27:38;;;;;;;32.53;18.63;;;;;;;;;;5021443;28;20683;-69
2021/03/03 04:30:09;;;;;;;36.23;18.93;;;;;;;;;;5030987;28;20555;-69
2021/03/03 04:32:34;;;;;;;33.57;18.33;;;;;;;;;;5021987;28;20189;-69
2021/03/03 04:35:00;;;;;;;33.63;18.83;;;;;;;;;;5032144;28;20283;-69
2021/03/03 04:37:26;;;;;;;39.73;20.27;;;;;;;;;;5020368;28;20950;-69
2021/03/03 04:39:52;;;;;;;38.70;19.13;;;;;;;;;;5032713;28;20189;-69
2021/03/03 04:42:17;;;;;;;40.73;20.60;;;;;;;;;;5025801;28;20225;-69
2021/03/03 04:44:43;;;;;;;42.40;19.43;;;;;;;;;;5031428;28;20178;-69
2021/03/03 04:47:08;;;;;;;41.30;19.93;;;;;;;;;;5023514;28;20189;-69
2021/03/03 04:49:34;;;;;;;38.50;19.60;;;;;;;;;;5033139;28;20185;-69
2021/03/03 04:51:59;;;;;;;38.37;19.50;;;;;;;;;;5023999;28;20226;-68
2021/03/03 04:54:24;;;;;;;39.43;20.37;;;;;;;;;;5031410;28;21405;-68
2021/03/03 04:56:50;;;;;;;35.37;19.47;;;;;;;;;;5031618;28;20696;-68
2021/03/03 04:59:15;;;;;;;36.17;19.63;;;;;;;;;;5024801;28;20234;-68
2021/03/03 05:01:41;;;;;;;35.87;18.60;;;;;;;;;;5032291;28;20288;-69
2021/03/03 05:04:06;;;;;;;33.80;18.17;;;;;;;;;;5023247;28;20296;-69
2021/03/03 05:06:32;;;;;;;36.83;19.10;;;;;;;;;;5031063;28;20193;-68
2021/03/03 05:08:57;;;;;;;37.07;19.20;;;;;;;;;;5021946;28;20220;-68
2021/03/03 05:11:22;;;;;;;40.70;19.87;;;;;;;;;;5032914;28;20235;-69
2021/03/03 05:13:48;;;;;;;39.13;20.53;;;;;;;;;;5021747;28;20231;-69
2021/03/03 05:16:13;;;;;;;40.30;19.53;;;;;;;;;;5031278;28;20209;-69
2021/03/03 05:18:39;;;;;;;35.87;19.47;;;;;;;;;;5021036;28;20188;-69
2021/03/03 05:21:05;;;;;;;46.47;21.37;;;;;;;;;;5031711;28;20193;-69
2021/03/03 05:23:32;;;;;;;40.70;21.37;;;;;;;;;;5025710;28;20190;-69
2021/03/03 05:25:59;;;;;;;42.97;21.13;;;;;;;;;;5031155;28;20189;-69
2021/03/03 05:28:25;;;;;;;39.53;20.13;;;;;;;;;;5026000;28;20227;-69
2021/03/03 05:30:51;;;;;;;39.03;19.83;;;;;;;;;;5022891;28;20272;-69
2021/03/03 05:33:26;;;;;;;43.07;21.87;;;;;;;;;;5035028;28;20312;-69
2021/03/03 05:35:53;;;;;;;41.50;19.50;;;;;;;;;;5027538;28;20189;-69
2021/03/03 05:38:18;;;;;;;41.27;20.57;;;;;;;;;;5035389;28;20204;-69
2021/03/03 05:40:45;;;;;;;44.93;21.80;;;;;;;;;;5024635;28;20622;-68
2021/03/03 05:43:11;;;;;;;42.10;20.57;;;;;;;;;;5032993;28;20239;-69
2021/03/03 05:45:38;;;;;;;42.40;20.70;;;;;;;;;;5027646;28;20770;-69
2021/03/03 05:48:05;;;;;;;39.23;21.43;;;;;;;;;;5045222;28;20196;-69
2021/03/03 05:50:32;;;;;;;36.90;19.80;;;;;;;;;;5024836;28;20278;-69
2021/03/03 05:52:58;;;;;;;48.07;21.67;;;;;;;;;;5032874;28;20649;-69
2021/03/03 05:55:24;;;;;;;44.67;21.90;;;;;;;;;;5026374;28;20517;-69
2021/03/03 05:57:50;;;;;;;44.83;22.87;;;;;;;;;;5032735;28;23010;-69
2021/03/03 06:00:16;;;;;;;40.20;21.53;;;;;;;;;;5034261;28;20691;-69
2021/03/03 06:02:42;;;;;;;40.87;20.23;;;;;;;;;;5025890;28;20294;-69
2021/03/03 06:05:10;;;;;;;44.07;21.67;;;;;;;;;;5036075;28;20324;-69
2021/03/03 06:07:36;;;;;;;43.67;21.63;;;;;;;;;;4673234;28;10000258;-69
2021/03/03 06:10:05;;;;;;;49.30;23.17;;;;;;;;;;5031522;28;20181;-68
2021/03/03 06:12:30;;;;;;;45.93;24.53;;;;;;;;;;5022878;28;20392;-68
2021/03/03 06:14:56;;;;;;;60.80;26.60;;;;;;;;;;5028216;28;20186;-69
2021/03/03 06:17:21;;;;;;;50.70;25.53;;;;;;;;;;5026132;28;20641;-69
2021/03/03 06:19:47;;;;;;;55.97;26.97;;;;;;;;;;5030217;28;20632;-68
2021/03/03 06:22:22;;;;;;;57.60;28.90;;;;;;;;;;5022976;28;20194;-69
2021/03/03 06:24:48;;;;;;;64.80;28.53;;;;;;;;;;5027039;28;20188;-68
2021/03/03 06:27:13;;;;;;;72.10;30.70;;;;;;;;;;5020155;28;20185;-69
2021/03/03 06:29:39;;;;;;;57.23;26.97;;;;;;;;;;5030334;28;20554;-69
2021/03/03 06:32:05;;;;;;;58.23;27.53;;;;;;;;;;5022489;28;20213;-68
2021/03/03 06:34:30;;;;;;;50.60;25.80;;;;;;;;;;5027804;28;21096;-68
2021/03/03 06:36:55;;;;;;;63.67;26.73;;;;;;;;;;5030343;28;20202;-68
2021/03/03 06:39:23;;;;;;;57.20;27.73;;;;;;;;;;5023257;28;20231;-68
2021/03/03 06:41:51;;;;;;;63.20;27.20;;;;;;;;;;5031900;28;20328;-68
2021/03/03 06:44:17;;;;;;;66.70;29.97;;;;;;;;;;5027880;28;20316;-68
2021/03/03 06:46:43;;;;;;;57.97;28.67;;;;;;;;;;5031447;28;20267;-68
2021/03/03 06:49:22;;;;;;;64.40;30.53;;;;;;;;;;5024906;28;20182;-68
2021/03/03 06:51:49;;;;;;;65.90;29.23;;;;;;;;;;5030958;28;20196;-68
2021/03/03 06:54:20;;;;;;;57.03;29.80;;;;;;;;;;5025540;28;20615;-68
2021/03/03 06:56:47;;;;;;;54.78;26.58;;;;;;;;;;4684283;28;10000249;-68
2021/03/03 06:59:18;;;;;;;62.97;29.50;;;;;;;;;;5020259;28;20204;-68
2021/03/03 07:01:50;;;;;;;65.37;28.77;;;;;;;;;;5028493;28;20215;-68
2021/03/03 07:04:19;;;;;;;61.17;28.90;;;;;;;;;;5021178;28;20205;-68
2021/03/03 07:06:45;;;;;;;56.67;28.03;;;;;;;;;;5027556;28;20190;-68
2021/03/03 07:09:11;;;;;;;56.30;26.50;;;;;;;;;;5021811;28;20189;-69
2021/03/03 07:11:38;;;;;;;54.67;25.80;;;;;;;;;;5027379;28;20296;-68
2021/03/03 07:14:13;;;;;;;55.50;26.83;;;;;;;;;;5031576;28;20193;-68
2021/03/03 07:17:03;;;;;;;55.03;25.97;;;;;;;;;;5019553;28;20207;-68
2021/03/03 07:19:28;;;;;;;54.47;25.93;;;;;;;;;;5032098;28;20211;-68
2021/03/03 07:21:54;;;;;;;53.97;24.87;;;;;;;;;;5020817;28;20272;-68
2021/03/03 07:24:21;;;;;;;51.53;26.17;;;;;;;;;;5030234;28;20213;-68
2021/03/03 07:26:47;;;;;;;53.50;26.20;;;;;;;;;;5023466;28;20468;-68
2021/03/03 07:29:13;;;;;;;54.23;26.03;;;;;;;;;;5033405;28;20660;-68
2021/03/03 07:31:39;;;;;;;49.00;24.93;;;;;;;;;;5022389;28;20182;-69
2021/03/03 07:34:06;;;;;;;41.60;23.10;;;;;;;;;;5032039;28;20185;-68
2021/03/03 07:36:34;;;;;;;43.60;22.80;;;;;;;;;;5023662;28;20637;-68
2021/03/03 07:39:01;;;;;;;49.53;25.37;;;;;;;;;;5034156;28;20196;-68
2021/03/03 07:41:27;;;;;;;46.63;23.70;;;;;;;;;;5022936;28;20225;-68
2021/03/03 07:43:54;;;;;;;44.20;23.40;;;;;;;;;;5033468;28;20182;-68
2021/03/03 07:46:21;;;;;;;48.80;25.03;;;;;;;;;;5020580;28;20200;-68
2021/03/03 07:48:51;;;;;;;45.03;24.27;;;;;;;;;;5033179;28;20239;-68
2021/03/03 07:51:18;;;;;;;48.03;22.97;;;;;;;;;;5029077;28;20193;-68
2021/03/03 07:53:44;;;;;;;43.80;23.17;;;;;;;;;;5033780;28;20658;-68
2021/03/03 07:56:09;;;;;;;43.87;23.57;;;;;;;;;;5033524;28;20209;-68
2021/03/03 07:58:36;;;;;;;43.43;22.60;;;;;;;;;;5024478;28;20198;-68
2021/03/03 08:01:02;;;;;;;39.63;22.63;;;;;;;;;;5032502;28;20318;-68
2021/03/03 08:03:48;;;;;;;43.77;22.50;;;;;;;;;;5032421;28;20199;-68
2021/03/03 08:06:31;;;;;;;43.60;22.67;;;;;;;;;;5032792;28;20521;-68
2021/03/03 08:09:06;;;;;;;48.63;22.67;;;;;;;;;;5024420;28;20461;-68
2021/03/03 08:11:33;;;;;;;44.23;21.97;;;;;;;;;;5030480;28;20227;-68
2021/03/03 08:13:59;;;;;;;40.27;21.30;;;;;;;;;;5026068;28;20247;-68
2021/03/03 08:16:24;;;;;;;39.53;21.03;;;;;;;;;;5032775;28;20218;-68
2021/03/03 08:18:54;;;;;;;35.77;20.43;;;;;;;;;;5027773;28;20272;-68
2021/03/03 08:21:29;;;;;;;40.43;20.50;;;;;;;;;;5029776;28;20231;-67
2021/03/03 08:23:59;;;;;;;45.60;22.37;;;;;;;;;;5024860;28;20224;-68
2021/03/03 08:26:24;;;;;;;37.47;21.03;;;;;;;;;;5033562;28;20243;-68
2021/03/03 08:28:53;;;;;;;38.97;20.50;;;;;;;;;;5026163;28;20185;-69
2021/03/03 08:31:25;;;;;;;39.23;21.20;;;;;;;;;;5030923;28;20272;-69
2021/03/03 08:33:51;;;;;;;38.75;20.15;;;;;;;;;;5026655;28;20264;-69
2021/03/03 08:36:24;;;;;;;44.10;21.05;;;;;;;;;;5032078;28;20659;-69
2021/03/03 08:38:55;;;;;;;38.77;20.70;;;;;;;;;;5027255;28;20185;-68
2021/03/03 08:41:29;;;;;;;36.33;19.93;;;;;;;;;;5032094;28;20244;-68
2021/03/03 08:44:10;;;;;;;40.83;20.63;;;;;;;;;;5032260;28;20185;-68
2021/03/03 08:46:41;;;;;;;43.22;20.48;;;;;;;;;;5032422;28;21326;-68
2021/03/03 08:49:09;;;;;;;41.50;20.55;;;;;;;;;;5031673;28;20193;-68
2021/03/03 08:52:08;;;;;;;38.22;20.60;;;;;;;;;;5022832;28;20228;-68
2021/03/03 08:54:42;;;;;;;38.17;20.53;;;;;;;;;;5031157;28;20700;-68
2021/03/03 08:57:31;;;;;;;40.03;21.20;;;;;;;;;;5031651;28;20220;-68
2021/03/03 08:59:57;;;;;;;39.15;21.10;;;;;;;;;;5026684;28;20189;-68
2021/03/03 09:02:26;;;;;;;43.47;21.55;;;;;;;;;;5031205;28;20322;-67
2021/03/03 09:04:53;;;;;;;44.63;21.63;;;;;;;;;;5030790;28;20684;-68
2021/03/03 09:07:22;;;;;;;36.88;21.38;;;;;;;;;;5021074;28;20633;-68
2021/03/03 09:09:52;;;;;;;40.47;21.38;;;;;;;;;;5033225;28;23612;-68
2021/03/03 09:12:20;;;;;;;42.53;21.65;;;;;;;;;;5021217;28;20210;-68
2021/03/03 09:14:47;;;;;;;38.13;21.58;;;;;;;;;;5032903;28;20223;-68
2021/03/03 09:17:18;;;;;;;45.97;21.88;;;;;;;;;;5023241;28;20213;-68
2021/03/03 09:19:44;;;;;;;39.65;20.90;;;;;;;;;;5032390;28;20193;-68
2021/03/03 09:22:21;;;;;;;36.97;21.98;;;;;;;;;;5024625;28;20325;-68
2021/03/03 09:24:48;;;;;;;40.65;22.00;;;;;;;;;;5031908;28;20269;-68
2021/03/03 09:27:14;;;;;;;38.35;21.00;;;;;;;;;;5021454;28;20599;-68
2021/03/03 09:29:40;;;;;;;47.95;23.35;;;;;;;;;;5030353;28;20292;-68
2021/03/03 09:32:13;;;;;;;43.78;23.35;;;;;;;;;;5024123;28;20551;-69
2021/03/03 09:34:50;;;;;;;42.13;23.17;;;;;;;;;;5029609;28;20305;-69
2021/03/03 09:37:16;;;;;;;43.95;23.20;;;;;;;;;;5022556;28;20201;-68
2021/03/03 09:39:42;;;;;;;40.83;23.55;;;;;;;;;;5031980;28;20257;-68
2021/03/03 09:42:10;;;;;;;43.83;23.80;;;;;;;;;;5024634;28;20246;-69
2021/03/03 09:44:50;;;;;;;46.15;23.30;;;;;;;;;;5026920;28;20186;-69
2021/03/03 09:47:30;;;;;;;41.20;23.17;;;;;;;;;;5031869;28;20217;-69
2021/03/03 09:49:56;;;;;;;44.28;24.30;;;;;;;;;;5031209;28;20190;-68
2021/03/03 09:52:23;;;;;;;45.22;24.98;;;;;;;;;;5030276;28;20189;-69
2021/03/03 09:54:48;;;;;;;42.08;24.63;;;;;;;;;;5023209;28;20272;-69
2021/03/03 09:57:20;;;;;;;41.95;24.25;;;;;;;;;;5028885;28;20300;-68
2021/03/03 09:59:49;;;;;;;47.15;25.63;;;;;;;;;;5024288;28;20190;-68
2021/03/03 10:02:23;;;;;;;46.80;25.30;;;;;;;;;;5028119;28;20273;-69
2021/03/03 10:04:50;;;;;;;47.08;26.33;;;;;;;;;;5022593;28;20235;-69
2021/03/03 10:07:19;;;;;;;47.90;25.73;;;;;;;;;;5029064;28;20205;-68
2021/03/03 10:09:46;;;;;;;44.80;26.10;;;;;;;;;;5024460;28;20209;-67
2021/03/03 10:12:17;;;;;;;41.80;25.23;;;;;;;;;;5031316;28;20181;-69
2021/03/03 10:15:06;;;;;;;47.45;26.65;;;;;;;;;;5022204;28;20221;-69
2021/03/03 10:17:36;;;;;;;42.80;25.27;;;;;;;;;;5028950;28;20197;-68
2021/03/03 10:20:07;;;;;;;45.05;25.88;;;;;;;;;;5024966;28;21196;-68
2021/03/03 10:22:32;;;;;;;44.20;26.52;;;;;;;;;;5033233;28;20177;-69
2021/03/03 10:25:06;;;;;;;46.70;27.35;;;;;;;;;;5027015;28;20202;-69
2021/03/03 10:27:36;;;;;;;46.38;26.60;;;;;;;;;;5032905;28;20177;-69
2021/03/03 10:30:19;;;;;;;51.45;28.38;;;;;;;;;;5025010;28;20185;-69
2021/03/03 10:32:44;;;;;;;52.80;26.92;;;;;;;;;;5031988;28;20228;-69
2021/03/03 10:35:10;;;;;;;46.03;28.52;;;;;;;;;;5024892;28;20178;-69
2021/03/03 10:37:35;;;;;;;49.42;28.65;;;;;;;;;;5031074;28;20782;-69
2021/03/03 10:40:11;;;;;;;55.15;30.33;;;;;;;;;;5033618;28;20193;-68
2021/03/03 10:42:36;;;;;;;54.95;32.08;;;;;;;;;;5029084;28;20245;-69
2021/03/03 10:45:01;;;;;;;55.58;30.50;;;;;;;;;;5034403;28;20189;-69
2021/03/03 10:47:41;;;;;;;53.90;30.88;;;;;;;;;;5022616;28;20260;-69
2021/03/03 10:50:09;;;;;;;59.53;34.08;;;;;;;;;;5033371;28;20235;-69
2021/03/03 10:52:34;;;;;;;57.33;33.78;;;;;;;;;;5024348;28;20591;-68
2021/03/03 10:55:00;;;;;;;58.55;33.88;;;;;;;;;;5033354;28;20262;-69
2021/03/03 10:57:26;;;;;;;61.08;33.00;;;;;;;;;;5023521;28;22874;-68
2021/03/03 11:00:05;;;;;;;52.30;33.40;;;;;;;;;;5045199;28;20190;-68
2021/03/03 11:02:30;;;;;;;62.65;36.28;;;;;;;;;;5023842;28;20665;-69
2021/03/03 11:04:56;;;;;;;54.05;34.53;;;;;;;;;;5035351;28;20209;-69
2021/03/03 11:07:21;;;;;;;59.78;35.13;;;;;;;;;;5026006;28;20221;-68
2021/03/03 11:09:51;;;;;;;63.13;36.60;;;;;;;;;;5030717;28;20275;-69
2021/03/03 11:12:24;;;;;;;62.33;35.72;;;;;;;;;;5025305;28;20573;-68
2021/03/03 11:14:49;;;;;;;66.25;37.88;;;;;;;;;;5032233;28;20201;-68
2021/03/03 11:17:15;;;;;;;63.33;38.22;;;;;;;;;;5027852;28;20649;-68
2021/03/03 11:19:40;;;;;;;59.13;36.25;;;;;;;;;;5030258;28;20198;-69
2021/03/03 11:22:06;;;;;;;59.00;36.05;;;;;;;;;;5035401;28;20196;-68
2021/03/03 11:24:31;;;;;;;66.70;36.60;;;;;;;;;;5024874;28;20190;-68
2021/03/03 11:26:56;;;;;;;62.33;36.83;;;;;;;;;;5031628;28;20596;-68
2021/03/03 11:29:21;;;;;;;62.80;36.47;;;;;;;;;;5023989;28;20193;-69
2021/03/03 11:31:47;;;;;;;60.22;35.63;;;;;;;;;;5029259;28;20189;-68
2021/03/03 11:34:13;;;;;;;60.47;35.33;;;;;;;;;;5024938;28;20722;-69
2021/03/03 11:36:38;;;;;;;55.33;33.13;;;;;;;;;;5031752;28;20217;-68
2021/03/03 11:39:05;;;;;;;64.38;34.05;;;;;;;;;;5026235;28;20186;-68
2021/03/03 11:41:31;;;;;;;54.40;32.95;;;;;;;;;;5031952;28;20226;-68
2021/03/03 11:43:56;;;;;;;62.45;33.20;;;;;;;;;;5027028;28;20204;-68
2021/03/03 11:46:21;;;;;;;58.80;34.80;;;;;;;;;;5029770;28;20296;-69
2021/03/03 11:48:47;;;;;;;67.68;35.47;;;;;;;;;;5032207;28;20197;-69
2021/03/03 11:51:13;;;;;;;66.78;35.50;;;;;;;;;;5022007;28;20562;-69
2021/03/03 11:53:39;;;;;;;61.83;36.75;;;;;;;;;;5029274;28;20675;-69
2021/03/03 11:56:05;;;;;;;60.28;37.72;;;;;;;;;;5021773;28;20186;-68
2021/03/03 11:58:30;;;;;;;61.95;36.25;;;;;;;;;;5031597;28;20218;-69
2021/03/03 12:00:55;;;;;;;63.90;36.88;;;;;;;;;;5022540;28;20667;-69
2021/03/03 12:03:21;;;;;;;62.65;34.47;;;;;;;;;;5032109;28;20193;-68
2021/03/03 12:05:46;;;;;;;59.90;34.72;;;;;;;;;;5024322;28;20205;-68
2021/03/03 12:08:11;;;;;;;60.50;35.40;;;;;;;;;;5035361;28;20270;-68
2021/03/03 12:10:37;;;;;;;50.36;28.74;;;;;;;;;;4328699;28;10021571;-68
2021/03/03 12:13:04;;;;;;;58.58;34.17;;;;;;;;;;5032202;28;20354;-69
2021/03/03 12:15:29;;;;;;;54.47;34.72;;;;;;;;;;5020260;28;20284;-68
2021/03/03 12:17:55;;;;;;;60.85;34.63;;;;;;;;;;5030737;28;20239;-70
2021/03/03 12:20:20;;;;;;;58.45;34.22;;;;;;;;;;5029223;28;20191;-69
2021/03/03 12:22:46;;;;;;;51.38;32.40;;;;;;;;;;5018518;28;20217;-69
2021/03/03 12:25:13;;;;;;;52.92;32.88;;;;;;;;;;5026796;28;20197;-69
2021/03/03 12:27:38;;;;;;;52.08;32.30;;;;;;;;;;5020158;28;20185;-69
2021/03/03 12:30:05;;;;;;;51.83;31.17;;;;;;;;;;5026958;28;20203;-69
2021/03/03 12:32:30;;;;;;;55.85;30.92;;;;;;;;;;5020295;28;20197;-69
2021/03/03 12:34:57;;;;;;;53.78;32.17;;;;;;;;;;5029195;28;20782;-69
2021/03/03 12:37:23;;;;;;;50.72;30.15;;;;;;;;;;5028084;28;20217;-69
2021/03/03 12:39:48;;;;;;;55.13;32.00;;;;;;;;;;5030422;28;20197;-69
2021/03/03 12:42:13;;;;;;;50.45;28.88;;;;;;;;;;5020886;28;20232;-69
2021/03/03 12:44:39;;;;;;;54.72;31.23;;;;;;;;;;5026702;28;20239;-68
2021/03/03 12:47:04;;;;;;;45.22;28.33;;;;;;;;;;5025214;28;20211;-68
2021/03/03 12:49:30;;;;;;;51.20;30.00;;;;;;;;;;5030785;28;20534;-68
2021/03/03 12:51:55;;;;;;;51.70;30.60;;;;;;;;;;5042772;28;20198;-68
2021/03/03 12:54:21;;;;;;;49.22;28.85;;;;;;;;;;5022244;28;20649;-68
2021/03/03 12:56:46;;;;;;;47.42;29.00;;;;;;;;;;5032199;28;20280;-68
2021/03/03 12:59:12;;;;;;;48.70;28.20;;;;;;;;;;5021577;28;20619;-68
2021/03/03 13:01:37;;;;;;;47.28;28.50;;;;;;;;;;5032573;28;20664;-68
2021/03/03 13:04:04;;;;;;;48.17;28.80;;;;;;;;;;5023414;28;20291;-68
2021/03/03 13:06:29;;;;;;;46.35;28.27;;;;;;;;;;5031779;28;20190;-68
2021/03/03 13:08:55;;;;;;;46.58;27.63;;;;;;;;;;5023350;28;20246;-68
2021/03/03 13:11:20;;;;;;;45.95;27.65;;;;;;;;;;5030397;28;20190;-69
2021/03/03 13:13:45;;;;;;;43.15;26.92;;;;;;;;;;5023901;28;20189;-68
2021/03/03 13:16:11;;;;;;;46.60;27.52;;;;;;;;;;5031405;28;20193;-68
2021/03/03 13:18:36;;;;;;;45.35;27.25;;;;;;;;;;5030008;28;20577;-68
2021/03/03 13:21:02;;;;;;;47.15;26.48;;;;;;;;;;5028578;28;20636;-68
2021/03/03 13:23:27;;;;;;;43.63;26.00;;;;;;;;;;5030471;28;20201;-68
2021/03/03 13:25:53;;;;;;;49.83;26.38;;;;;;;;;;5020029;28;20220;-68
2021/03/03 13:28:18;;;;;;;41.33;26.33;;;;;;;;;;5032735;28;20685;-68
2021/03/03 13:30:44;;;;;;;42.00;25.40;;;;;;;;;;5019886;28;20277;-68
2021/03/03 13:33:09;;;;;;;43.67;26.38;;;;;;;;;;5033039;28;20255;-68
2021/03/03 13:35:34;;;;;;;39.80;26.10;;;;;;;;;;5025411;28;20192;-68
2021/03/03 13:38:00;;;;;;;42.00;24.88;;;;;;;;;;5033429;28;20224;-68
2021/03/03 13:40:26;;;;;;;43.80;25.25;;;;;;;;;;5023108;28;20227;-68
2021/03/03 13:42:51;;;;;;;42.28;23.92;;;;;;;;;;5032741;28;20580;-68
2021/03/03 13:45:17;;;;;;;43.90;25.85;;;;;;;;;;5024331;28;20232;-69
2021/03/03 13:47:42;;;;;;;43.45;25.38;;;;;;;;;;5032319;28;20584;-69
2021/03/03 13:50:09;;;;;;;43.33;25.55;;;;;;;;;;5032295;28;20185;-69
2021/03/03 13:52:34;;;;;;;42.63;25.70;;;;;;;;;;5016206;28;20189;-69
2021/03/03 13:55:00;;;;;;;45.30;25.58;;;;;;;;;;5031251;28;20692;-69
2021/03/03 13:57:25;;;;;;;43.42;25.90;;;;;;;;;;5020251;28;20218;-68
2021/03/03 13:59:51;;;;;;;43.08;26.15;;;;;;;;;;5034789;28;20536;-69
2021/03/03 14:02:16;;;;;;;46.63;26.35;;;;;;;;;;5025477;28;20217;-69
2021/03/03 14:04:42;;;;;;;47.28;28.83;;;;;;;;;;5035068;28;20300;-69
2021/03/03 14:07:07;;;;;;;48.42;28.90;;;;;;;;;;5025477;28;20572;-69
2021/03/03 14:09:33;;;;;;;54.38;31.70;;;;;;;;;;5032994;28;20203;-69
2021/03/03 14:11:58;;;;;;;54.92;32.05;;;;;;;;;;5026169;28;20190;-69
2021/03/03 14:14:24;;;;;;;52.47;31.08;;;;;;;;;;5034969;28;20570;-69
2021/03/03 14:16:49;;;;;;;54.78;31.75;;;;;;;;;;5027965;28;20304;-69